Time;durP1;ratioP1;P1;durP2;ratioP2;P2;SDS_P1;SDS_P2;PMS_P1;PMS_P2;Temp;Humidity;BMP_temperature;BMP_pressure;BME280_temperature;BME280_humidity;BME280_pressure;Samples;Min_cycle;Max_cycle;Signal;HPM_P1;HPM_P2
2022/07/03 07:09:52;;;;;;;7.97;1.80;;;22.10;99.90;;;;;;5035403;27;20655;-84
2022/07/03 07:12:18;;;;;;;3.92;1.30;;;22.00;99.90;;;;;;5028592;28;20260;-84
2022/07/03 07:14:44;;;;;;;2.70;1.25;;;22.10;99.90;;;;;;5005142;28;20136;-85
2022/07/03 07:17:12;;;;;;;5.38;1.80;;;22.20;99.90;;;;;;5028513;28;20064;-86
2022/07/03 07:19:38;;;;;;;3.95;1.27;;;22.10;99.90;;;;;;5042479;28;20038;-86
2022/07/03 07:22:04;;;;;;;5.75;2.17;;;22.20;99.90;;;;;;5033258;28;20050;-84
2022/07/03 07:24:30;;;;;;;7.63;1.70;;;22.30;99.90;;;;;;5028551;28;20137;-82
2022/07/03 07:26:56;;;;;;;4.15;1.30;;;22.40;99.90;;;;;;5043405;28;20049;-83
2022/07/03 07:29:21;;;;;;;6.03;1.58;;;22.60;99.90;;;;;;5039148;28;20049;-83
2022/07/03 07:31:47;;;;;;;4.97;1.27;;;22.70;99.90;;;;;;5036688;28;20054;-85
2022/07/03 07:34:13;;;;;;;2.97;1.15;;;22.80;99.90;;;;;;5034903;28;20072;-85
2022/07/03 07:36:39;;;;;;;3.63;1.10;;;22.90;99.90;;;;;;5038504;28;20085;-83
2022/07/03 07:39:04;;;;;;;5.40;1.63;;;23.10;99.90;;;;;;5034110;28;20041;-82
2022/07/03 07:41:30;;;;;;;4.55;1.73;;;23.10;99.90;;;;;;5039686;28;20044;-82
2022/07/03 07:43:56;;;;;;;4.05;1.42;;;23.20;99.90;;;;;;5049157;28;20540;-85
2022/07/03 07:46:22;;;;;;;5.15;1.42;;;23.10;99.90;;;;;;5053171;28;20040;-84
2022/07/03 07:48:48;;;;;;;2.70;1.05;;;23.00;99.90;;;;;;5043187;28;20488;-82
2022/07/03 07:51:16;;;;;;;3.00;0.90;;;23.00;99.90;;;;;;5049034;28;20429;-82
2022/07/03 07:53:41;;;;;;;7.22;1.30;;;23.20;99.90;;;;;;5038935;28;20904;-79
2022/07/03 07:56:07;;;;;;;3.10;1.08;;;23.20;99.90;;;;;;5033577;28;20045;-78
2022/07/03 07:58:33;;;;;;;2.72;0.88;;;23.30;99.90;;;;;;5034459;28;20084;-79
2022/07/03 08:06:27;;;;;;;3.63;1.25;;;23.60;99.90;;;;;;5028354;28;20120;-78
2022/07/03 08:08:52;;;;;;;4.05;1.10;;;23.80;99.90;;;;;;5032884;28;20141;-80
2022/07/03 08:11:18;;;;;;;5.60;1.75;;;23.60;99.90;;;;;;5028557;28;20034;-80
2022/07/03 08:13:45;;;;;;;4.38;1.20;;;23.70;99.90;;;;;;5030581;28;20384;-81
2022/07/03 08:16:12;;;;;;;5.03;1.30;;;23.90;99.90;;;;;;5033140;28;20413;-79
2022/07/03 08:18:38;;;;;;;4.70;1.33;;;24.00;99.90;;;;;;5032031;28;20048;-78
2022/07/03 08:21:04;;;;;;;4.57;1.50;;;24.10;99.90;;;;;;5017722;28;20041;-79
2022/07/03 08:23:29;;;;;;;5.10;1.20;;;24.20;99.90;;;;;;5017838;28;20048;-79
2022/07/03 08:25:55;;;;;;;5.20;1.40;;;24.00;99.90;;;;;;5013937;28;20509;-80
2022/07/03 08:28:21;;;;;;;6.82;1.50;;;23.90;99.90;;;;;;5013216;28;20084;-79
2022/07/03 08:30:47;;;;;;;5.30;1.35;;;23.90;99.90;;;;;;5013472;28;20412;-79
2022/07/03 08:33:13;;;;;;;4.70;1.85;;;24.00;99.90;;;;;;5014484;28;20041;-78
2022/07/03 08:35:39;;;;;;;6.72;1.40;;;24.00;99.90;;;;;;5024588;28;20038;-79
2022/07/03 08:38:04;;;;;;;3.60;1.00;;;23.90;99.90;;;;;;5025699;28;20077;-79
2022/07/03 08:40:31;;;;;;;3.40;1.30;;;24.00;99.90;;;;;;5020340;28;20129;-82
2022/07/03 08:43:00;;;;;;;11.65;2.65;;;24.10;99.90;;;;;;5017357;28;20270;-78
2022/07/03 08:45:26;;;;;;;4.15;1.50;;;24.40;99.90;;;;;;5017812;28;20570;-78
2022/07/03 08:47:58;;;;;;;5.55;1.48;;;24.60;99.90;;;;;;5021157;28;20128;-79
2022/07/03 08:50:25;;;;;;;9.32;2.28;;;24.70;99.90;;;;;;5014027;28;20132;-80
2022/07/03 08:52:51;;;;;;;3.95;1.42;;;24.60;99.90;;;;;;5019327;28;20133;-80
2022/07/03 08:55:18;;;;;;;7.80;1.50;;;24.70;99.90;;;;;;5019372;28;20124;-78
2022/07/03 08:57:46;;;;;;;5.10;1.55;;;24.70;99.90;;;;;;5016230;28;20964;-79
2022/07/03 09:00:18;;;;;;;6.03;1.20;;;24.70;99.90;;;;;;5021079;28;20103;-78
2022/07/03 09:02:45;;;;;;;4.60;1.50;;;24.70;99.90;;;;;;5025935;28;20468;-80
2022/07/03 09:05:13;;;;;;;11.50;1.63;;;24.50;99.90;;;;;;5015581;28;20050;-80
2022/07/03 09:07:43;;;;;;;5.78;1.70;;;24.10;99.90;;;;;;5016183;28;20095;-81
2022/07/03 09:10:12;;;;;;;6.75;1.45;;;23.90;99.90;;;;;;5012623;28;20041;-78
2022/07/03 09:12:38;;;;;;;7.78;2.22;;;24.00;99.90;;;;;;5012630;28;20080;-80
2022/07/03 09:15:06;;;;;;;3.80;1.45;;;23.90;99.90;;;;;;5011429;28;20124;-81
2022/07/03 09:17:32;;;;;;;7.07;1.70;;;23.80;99.90;;;;;;5010477;28;20128;-79
2022/07/03 09:20:00;;;;;;;7.60;1.85;;;23.80;99.90;;;;;;5010742;28;20053;-78
2022/07/03 09:22:28;;;;;;;3.90;1.70;;;23.90;99.90;;;;;;5017006;28;20052;-79
2022/07/03 09:25:08;;;;;;;6.38;1.70;;;24.00;99.90;;;;;;5011576;28;20551;-79
2022/07/03 09:27:35;;;;;;;6.25;1.73;;;24.10;99.90;;;;;;5013110;28;20068;-79
2022/07/03 09:30:04;;;;;;;11.63;2.58;;;24.10;99.90;;;;;;5022138;28;20103;-81
2022/07/03 09:32:44;;;;;;;8.80;1.98;;;24.10;99.90;;;;;;5014314;28;20045;-80
2022/07/03 09:35:19;;;;;;;9.38;2.05;;;24.00;99.90;;;;;;5022956;28;20540;-79
2022/07/03 09:37:49;;;;;;;7.35;2.28;;;23.80;99.90;;;;;;5020195;28;20049;-79
2022/07/03 09:40:14;;;;;;;7.22;2.35;;;23.60;99.90;;;;;;5010932;28;20054;-79
2022/07/03 09:42:40;;;;;;;7.20;1.95;;;23.40;99.90;;;;;;5017274;28;20056;-79
2022/07/03 09:45:06;;;;;;;9.38;2.47;;;23.10;99.90;;;;;;5029950;28;20055;-79
2022/07/03 09:47:31;;;;;;;7.47;1.75;;;22.90;99.90;;;;;;5010648;28;20058;-81
2022/07/03 09:50:07;;;;;;;5.82;2.10;;;22.80;99.90;;;;;;5019508;28;22045;-81
2022/07/03 09:52:34;;;;;;;11.13;2.85;;;22.90;99.90;;;;;;5014008;28;20057;-80
2022/07/03 09:55:11;;;;;;;12.65;2.63;;;22.80;99.90;;;;;;5015404;28;20097;-80
2022/07/03 09:57:58;;;;;;;8.63;2.25;;;22.80;99.90;;;;;;5012900;28;20065;-79
2022/07/03 10:00:36;;;;;;;7.65;2.10;;;22.50;99.90;;;;;;5013212;28;20042;-81
2022/07/03 10:03:05;;;;;;;4.15;1.80;;;22.50;99.90;;;;;;5015719;28;20056;-80
2022/07/03 10:05:38;;;;;;;9.35;2.65;;;22.40;99.90;;;;;;5023764;28;20129;-79
2022/07/03 10:08:05;;;;;;;10.95;2.60;;;22.30;99.90;;;;;;5016264;28;20052;-80
2022/07/03 10:10:36;;;;;;;10.18;2.45;;;22.00;99.90;;;;;;5009877;28;20041;-79
2022/07/03 10:13:03;;;;;;;9.70;2.47;;;21.90;99.90;;;;;;5022518;28;20045;-77
2022/07/03 10:15:31;;;;;;;6.22;1.75;;;21.90;99.90;;;;;;5022388;28;20109;-78
2022/07/03 10:17:58;;;;;;;11.77;2.10;;;21.80;99.90;;;;;;5020021;28;20103;-78
2022/07/03 10:20:30;;;;;;;9.38;2.40;;;21.90;99.90;;;;;;5010657;28;20572;-79
2022/07/03 10:22:56;;;;;;;7.63;1.60;;;22.00;99.90;;;;;;5017864;28;20111;-79
2022/07/03 10:25:22;;;;;;;11.55;2.55;;;22.10;99.90;;;;;;5025058;28;20140;-79
2022/07/03 10:27:49;;;;;;;5.43;1.92;;;22.00;99.90;;;;;;5020538;28;20073;-80
2022/07/03 10:30:20;;;;;;;5.15;1.80;;;22.00;99.90;;;;;;5018948;28;20049;-79
2022/07/03 10:32:48;;;;;;;6.95;1.90;;;22.30;99.90;;;;;;5006396;28;20521;-81
2022/07/03 10:35:50;;;;;;;7.93;1.92;;;22.70;99.90;;;;;;5019192;28;20490;-81
2022/07/03 10:38:45;;;;;;;5.70;1.90;;;23.10;99.90;;;;;;5009292;28;20049;-84
2022/07/03 10:47:40;;;;;;;4.20;1.50;;;23.20;99.90;;;;;;5011536;28;20121;-82
2022/07/03 10:50:14;;;;;;;3.67;1.30;;;23.40;99.90;;;;;;5029175;28;20041;-86
2022/07/03 10:52:46;;;;;;;5.78;1.60;;;23.60;99.90;;;;;;5020875;28;20038;-87
2022/07/03 10:55:14;;;;;;;5.90;1.40;;;23.50;99.90;;;;;;5020788;28;20075;-86
2022/07/03 10:57:41;;;;;;;4.50;1.60;;;23.50;99.90;;;;;;5019319;28;20079;-87
2022/07/03 11:00:08;;;;;;;5.40;1.60;;;23.40;99.90;;;;;;5017602;28;20512;-84
2022/07/03 11:02:50;;;;;;;6.07;1.50;;;23.40;99.90;;;;;;5023886;28;20129;-85
2022/07/03 11:05:21;;;;;;;3.70;1.33;;;23.50;99.90;;;;;;5006818;28;20057;-84
2022/07/03 11:07:49;;;;;;;7.05;1.40;;;23.60;99.90;;;;;;5013360;28;20065;-83
2022/07/03 11:10:15;;;;;;;6.00;1.70;;;23.70;99.90;;;;;;5011030;28;20504;-74
2022/07/03 11:12:58;;;;;;;4.10;1.40;;;23.60;99.90;;;;;;5017566;28;20053;-77
2022/07/03 11:15:41;;;;;;;;;;;23.50;99.90;;;;;;5008750;28;20650;-78
2022/07/03 11:18:07;;;;;;;5.38;1.70;;;23.60;99.90;;;;;;5018005;28;19978;-78
2022/07/03 11:20:34;;;;;;;3.13;1.25;;;23.60;99.90;;;;;;5009075;28;20053;-78
2022/07/03 11:23:13;;;;;;;4.18;1.40;;;23.50;99.90;;;;;;5009735;28;20060;-80
2022/07/03 11:25:43;;;;;;;4.65;1.35;;;23.50;99.90;;;;;;5004648;28;20041;-79
2022/07/03 11:28:32;;;;;;;4.03;1.52;;;23.60;99.90;;;;;;5015681;28;20045;-80
2022/07/03 11:31:18;;;;;;;4.57;1.55;;;23.60;99.90;;;;;;5012773;28;20068;-78
2022/07/03 11:33:53;;;;;;;6.55;1.40;;;23.40;99.90;;;;;;5015142;28;20046;-78
2022/07/03 11:36:22;;;;;;;5.18;1.30;;;23.50;99.90;;;;;;5017692;28;20128;-76
2022/07/03 11:39:02;;;;;;;3.33;1.30;;;23.70;99.90;;;;;;5013076;28;20042;-74
2022/07/03 11:41:43;;;;;;;4.60;1.40;;;23.90;99.90;;;;;;5018612;28;20042;-74
2022/07/03 11:44:10;;;;;;;3.88;1.10;;;24.00;99.90;;;;;;5012887;28;20409;-74
2022/07/03 11:46:37;;;;;;;5.80;1.38;;;24.10;99.90;;;;;;5012712;28;20038;-76
2022/07/03 11:49:14;;;;;;;4.72;1.13;;;24.00;99.90;;;;;;5010794;28;20061;-77
2022/07/03 11:51:54;;;;;;;3.78;1.48;;;24.20;99.90;;;;;;5021600;28;20129;-75
2022/07/03 11:54:20;;;;;;;3.75;1.10;;;24.40;99.90;;;;;;5014067;28;20038;-74
2022/07/03 11:56:46;;;;;;;3.70;1.48;;;24.70;99.90;;;;;;5015448;28;20401;-75
2022/07/03 11:59:12;;;;;;;4.05;1.50;;;24.50;99.90;;;;;;5017273;28;20048;-74
2022/07/03 12:01:38;;;;;;;5.25;1.20;;;24.30;99.90;;;;;;5017214;28;20037;-75
2022/07/03 12:04:19;;;;;;;4.32;1.30;;;24.20;99.90;;;;;;5020504;28;20079;-75
2022/07/03 12:06:53;;;;;;;3.92;1.30;;;24.30;99.90;;;;;;5018918;28;20045;-75
2022/07/03 12:09:24;;;;;;;3.90;1.30;;;24.30;99.90;;;;;;5013144;28;20053;-73
2022/07/03 12:12:03;;;;;;;4.43;1.50;;;24.40;99.90;;;;;;5018684;28;20658;-73
2022/07/03 12:14:48;;;;;;;4.70;1.42;;;24.50;99.90;;;;;;5011534;28;20631;-76
2022/07/03 12:17:24;;;;;;;3.88;1.58;;;24.70;99.90;;;;;;5019927;28;20045;-74
2022/07/03 12:20:00;;;;;;;8.50;1.73;;;24.70;99.90;;;;;;5021543;28;20044;-75
2022/07/03 12:22:29;;;;;;;5.38;1.55;;;24.50;99.90;;;;;;5015648;28;20096;-69
2022/07/03 12:24:58;;;;;;;3.47;1.30;;;24.30;99.90;;;;;;5012178;28;20057;-73
2022/07/03 12:27:24;;;;;;;4.85;2.20;;;24.10;99.90;;;;;;5013882;28;20100;-75
2022/07/03 12:29:51;;;;;;;3.90;1.83;;;23.90;99.90;;;;;;5015143;28;20049;-74
2022/07/03 12:32:17;;;;;;;3.30;1.52;;;23.80;99.90;;;;;;5016062;28;20038;-75
2022/07/03 12:34:43;;;;;;;3.55;1.42;;;23.60;99.90;;;;;;5012766;28;20456;-73
2022/07/03 12:37:08;;;;;;;3.45;1.65;;;23.80;99.90;;;;;;5010271;28;20066;-75
2022/07/03 12:39:49;;;;;;;3.35;1.23;;;24.10;99.90;;;;;;5018133;28;20088;-74
2022/07/03 12:42:22;;;;;;;4.05;1.00;;;24.30;99.90;;;;;;5015466;28;20497;-75
2022/07/03 12:44:59;;;;;;;5.97;1.40;;;24.50;99.90;;;;;;5014836;28;20046;-73
2022/07/03 12:47:27;;;;;;;3.55;1.20;;;24.60;99.90;;;;;;5017421;28;20147;-73
2022/07/03 12:50:00;;;;;;;3.13;1.00;;;24.60;99.90;;;;;;5017780;28;20038;-80
2022/07/03 12:52:28;;;;;;;3.38;0.85;;;24.70;99.90;;;;;;5024527;28;20089;-85
2022/07/03 12:54:54;;;;;;;1.88;1.00;;;24.60;99.90;;;;;;5010375;28;20065;-74
2022/07/03 13:00:12;;;;;;;2.63;0.98;;;24.50;99.90;;;;;;5014719;28;20042;-79
2022/07/03 13:02:39;;;;;;;3.28;1.40;;;24.40;99.90;;;;;;5011196;28;20052;-80
2022/07/03 13:05:17;;;;;;;4.13;1.13;;;24.20;99.90;;;;;;5011524;28;20453;-70
2022/07/03 13:07:43;;;;;;;3.83;1.40;;;23.80;99.90;;;;;;5016263;28;20129;-73
2022/07/03 13:10:10;;;;;;;3.55;1.00;;;23.70;99.90;;;;;;5022366;28;20045;-71
2022/07/03 13:12:55;;;;;;;6.05;1.83;;;23.60;99.90;;;;;;5021169;28;20069;-72
2022/07/03 13:15:25;;;;;;;3.08;1.30;;;23.60;99.90;;;;;;5027087;28;20083;-72
2022/07/03 13:17:51;;;;;;;3.53;1.33;;;23.50;99.90;;;;;;5016644;28;20038;-72
2022/07/03 13:20:17;;;;;;;3.47;1.60;;;23.30;99.90;;;;;;5018863;28;20053;-71
2022/07/03 13:22:42;;;;;;;2.97;1.50;;;23.10;99.90;;;;;;5013455;28;20049;-71
2022/07/03 13:25:08;;;;;;;3.40;1.60;;;22.90;99.90;;;;;;5014841;28;20044;-89
2022/07/03 13:27:34;;;;;;;3.38;1.20;;;22.70;99.90;;;;;;5013266;28;20052;-76
2022/07/03 13:30:00;;;;;;;3.65;1.52;;;22.50;99.90;;;;;;5011871;28;20042;-73
2022/07/03 13:32:26;;;;;;;2.72;1.13;;;22.30;99.90;;;;;;5017093;28;20516;-74
2022/07/03 13:34:51;;;;;;;2.97;1.10;;;22.10;99.90;;;;;;5015340;28;20512;-75
2022/07/03 13:37:17;;;;;;;3.45;1.42;;;21.90;99.90;;;;;;5018801;28;20108;-81
2022/07/03 13:39:42;;;;;;;3.50;1.40;;;21.70;99.90;;;;;;5014506;28;20104;-78
2022/07/03 13:42:10;;;;;;;3.45;1.25;;;21.60;99.90;;;;;;5011587;28;20123;-81
2022/07/03 13:44:36;;;;;;;3.67;1.30;;;21.60;99.90;;;;;;5015684;28;20041;-76
2022/07/03 13:47:05;;;;;;;3.83;1.40;;;21.60;99.90;;;;;;5012863;28;20117;-78
2022/07/03 13:49:32;;;;;;;2.00;1.05;;;21.60;99.90;;;;;;5019547;28;20045;-79
2022/07/03 13:51:58;;;;;;;3.28;1.10;;;21.60;99.90;;;;;;5015792;28;20563;-77
2022/07/03 13:54:24;;;;;;;4.57;1.23;;;21.60;99.90;;;;;;5015091;28;20037;-79
2022/07/03 13:56:50;;;;;;;2.80;1.30;;;21.60;99.90;;;;;;5017188;28;20137;-76
2022/07/03 13:59:16;;;;;;;2.40;1.15;;;21.60;99.90;;;;;;5009469;28;20050;-82
2022/07/03 14:01:42;;;;;;;2.53;1.27;;;21.50;99.90;;;;;;5019741;28;20052;-77
2022/07/03 14:04:07;;;;;;;4.30;1.17;;;21.60;99.90;;;;;;5014933;28;20037;-76
2022/07/03 14:06:34;;;;;;;2.30;1.08;;;21.60;99.90;;;;;;5018177;28;20057;-75
2022/07/03 14:09:00;;;;;;;3.15;1.25;;;21.50;99.90;;;;;;5012209;28;20038;-76
2022/07/03 14:11:26;;;;;;;3.20;1.30;;;21.50;99.90;;;;;;5018588;28;20068;-77
2022/07/03 14:13:52;;;;;;;2.70;1.10;;;21.40;99.90;;;;;;5015093;28;20100;-77
2022/07/03 14:16:18;;;;;;;3.33;1.10;;;21.40;99.90;;;;;;5010412;28;20042;-76
2022/07/03 14:18:43;;;;;;;2.55;1.10;;;21.40;99.90;;;;;;5014200;28;20069;-76
2022/07/03 14:21:09;;;;;;;2.80;1.30;;;21.40;99.90;;;;;;5016980;28;20042;-76
2022/07/03 14:23:35;;;;;;;2.78;1.20;;;21.50;99.90;;;;;;5015208;28;20497;-76
2022/07/03 14:26:00;;;;;;;2.58;1.40;;;21.40;99.90;;;;;;5012931;28;20038;-77
2022/07/03 14:32:28;;;;;;;2.17;1.40;;;21.50;99.90;;;;;;5016497;28;20042;-78
2022/07/03 14:34:02;;;;;;;2.53;1.38;;;21.60;99.90;;;;;;5010214;28;20080;-75
2022/07/03 14:36:27;;;;;;;3.60;1.50;;;21.80;99.90;;;;;;5013435;28;20058;-71
2022/07/03 14:38:53;;;;;;;3.45;1.40;;;22.00;99.90;;;;;;5017056;28;20064;-72
2022/07/03 14:41:19;;;;;;;3.53;1.40;;;22.20;99.90;;;;;;5013663;28;20042;-71
2022/07/03 14:43:44;;;;;;;3.13;1.42;;;22.30;99.90;;;;;;5010945;28;20084;-72
2022/07/03 14:46:10;;;;;;;2.50;1.17;;;22.40;99.90;;;;;;5008702;28;20512;-73
2022/07/03 14:48:36;;;;;;;6.22;1.58;;;22.50;99.90;;;;;;5017490;28;20038;-73
2022/07/03 14:51:01;;;;;;;4.57;1.52;;;22.40;99.90;;;;;;5013860;28;20484;-72
2022/07/03 14:53:27;;;;;;;6.40;1.27;;;22.40;99.90;;;;;;5012810;28;20078;-73
2022/07/03 14:55:55;;;;;;;4.43;1.70;;;22.30;99.90;;;;;;5015001;28;20496;-74
2022/07/03 14:58:25;;;;;;;2.38;1.00;;;22.20;99.90;;;;;;5012183;28;20055;-76
2022/07/03 15:00:54;;;;;;;2.45;1.20;;;22.10;99.90;;;;;;5012940;28;20052;-74
2022/07/03 15:03:29;;;;;;;4.47;1.63;;;22.00;99.90;;;;;;5010861;28;20041;-74
2022/07/03 15:05:57;;;;;;;4.95;1.63;;;22.00;99.90;;;;;;5012429;28;20081;-73
2022/07/03 15:08:28;;;;;;;4.28;1.70;;;22.00;99.90;;;;;;5009734;28;20587;-73
2022/07/03 15:10:56;;;;;;;4.47;1.58;;;22.00;99.90;;;;;;5010704;28;20060;-73
2022/07/03 15:13:24;;;;;;;2.65;1.23;;;22.00;99.90;;;;;;5008505;28;20029;-73
2022/07/03 15:15:50;;;;;;;4.78;1.40;;;21.90;99.90;;;;;;5016821;28;20076;-73
2022/07/03 15:18:23;;;;;;;4.47;1.38;;;21.80;99.90;;;;;;5021731;28;20100;-72
2022/07/03 15:20:50;;;;;;;3.05;1.33;;;21.70;99.90;;;;;;5019569;28;20041;-73
2022/07/03 15:23:19;;;;;;;3.53;1.40;;;21.60;99.90;;;;;;5012319;28;20034;-73
2022/07/03 15:25:46;;;;;;;3.30;1.40;;;21.60;99.90;;;;;;5011156;28;20690;-73
2022/07/03 15:28:13;;;;;;;4.20;1.35;;;21.50;99.90;;;;;;5011103;28;20054;-71
2022/07/03 15:30:48;;;;;;;2.78;1.08;;;21.50;99.90;;;;;;5018159;28;20041;-72
2022/07/03 15:33:14;;;;;;;3.78;1.30;;;21.40;99.90;;;;;;5014038;28;20038;-73
2022/07/03 15:35:57;;;;;;;3.30;1.33;;;21.40;99.90;;;;;;5016061;28;20723;-72
2022/07/03 15:38:26;;;;;;;;;;;21.30;99.90;;;;;;5013038;28;20129;-72
2022/07/03 15:40:54;;;;;;;3.60;1.58;;;21.20;99.90;;;;;;5015876;28;20266;-74
2022/07/03 15:43:41;;;;;;;5.00;1.10;;;21.20;99.90;;;;;;5014820;28;20048;-72
2022/07/03 15:46:29;;;;;;;3.80;1.73;;;21.20;99.90;;;;;;5017849;28;20489;-70
2022/07/03 15:49:03;;;;;;;3.80;1.35;;;21.40;99.90;;;;;;5020048;28;20052;-70
2022/07/03 15:51:56;;;;;;;4.43;1.40;;;21.40;99.90;;;;;;5015255;28;20049;-71
2022/07/03 15:54:50;;;;;;;4.53;1.38;;;21.40;99.90;;;;;;5012778;28;20033;-77
2022/07/03 15:57:38;;;;;;;3.85;1.40;;;21.40;99.90;;;;;;5014858;28;20094;-78
2022/07/03 16:00:09;;;;;;;4.82;2.33;;;21.30;99.90;;;;;;5010749;28;20030;-82
2022/07/03 16:02:57;;;;;;;5.57;1.67;;;21.30;99.90;;;;;;5014953;28;20502;-81
2022/07/03 16:05:33;;;;;;;3.55;1.60;;;21.30;99.90;;;;;;5011322;28;20042;-71
2022/07/03 16:08:02;;;;;;;9.23;2.55;;;21.30;99.90;;;;;;5014439;28;20521;-76
2022/07/03 16:10:31;;;;;;;7.45;2.53;;;21.30;99.90;;;;;;5015896;28;20046;-74
2022/07/03 16:12:59;;;;;;;5.60;2.30;;;21.40;99.90;;;;;;5016521;28;20084;-72
2022/07/03 16:15:30;;;;;;;9.05;2.78;;;21.40;99.90;;;;;;5013537;28;21223;-72
2022/07/03 16:17:57;;;;;;;3.55;1.90;;;21.50;99.90;;;;;;5015193;28;20041;-73
2022/07/03 16:20:27;;;;;;;6.15;3.05;;;21.50;99.90;;;;;;5014617;28;20571;-74
2022/07/03 16:22:56;;;;;;;6.40;2.30;;;21.50;99.90;;;;;;5017693;28;20065;-74
2022/07/03 16:25:24;;;;;;;11.13;3.30;;;21.80;99.90;;;;;;5016485;28;20458;-73
2022/07/03 16:27:50;;;;;;;4.68;2.38;;;22.00;99.90;;;;;;5018609;28;20042;-73
2022/07/03 16:30:16;;;;;;;4.63;2.30;;;22.20;99.90;;;;;;5016144;28;20060;-73
2022/07/03 16:32:42;;;;;;;6.18;2.30;;;22.40;99.90;;;;;;5021913;28;20057;-73
2022/07/03 16:35:24;;;;;;;5.47;2.10;;;22.50;99.90;;;;;;5008769;28;20052;-74
2022/07/03 16:37:50;;;;;;;5.40;2.20;;;22.40;99.90;;;;;;5015314;28;20424;-74
2022/07/03 16:40:19;;;;;;;4.30;1.63;;;22.10;99.90;;;;;;5014945;28;20605;-73
2022/07/03 16:42:49;;;;;;;3.80;1.70;;;21.80;99.90;;;;;;5012927;28;20526;-74
2022/07/03 16:45:15;;;;;;;3.85;1.63;;;21.50;99.90;;;;;;5015477;28;20055;-71
2022/07/03 16:47:46;;;;;;;5.60;1.60;;;21.40;99.90;;;;;;5014067;28;20057;-74
2022/07/03 16:50:19;;;;;;;3.97;1.65;;;21.30;99.90;;;;;;5009152;28;20046;-74
2022/07/03 16:52:47;;;;;;;4.40;1.77;;;21.60;99.90;;;;;;5019793;28;20041;-72
2022/07/03 16:55:14;;;;;;;4.43;1.80;;;22.20;99.90;;;;;;5014813;28;20057;-74
2022/07/03 16:57:59;;;;;;;3.75;1.60;;;22.90;99.90;;;;;;5011235;28;20038;-73
2022/07/03 17:00:28;;;;;;;5.78;2.05;;;23.50;99.90;;;;;;5016059;28;20038;-72
2022/07/03 17:02:55;;;;;;;6.38;1.60;;;23.90;99.90;;;;;;5016651;28;21908;-75
2022/07/03 17:05:23;;;;;;;5.20;1.75;;;24.30;99.90;;;;;;5017855;28;20448;-76
2022/07/03 17:07:51;;;;;;;5.22;2.00;;;24.20;99.90;;;;;;5016940;28;20052;-73
2022/07/03 17:10:18;;;;;;;4.22;1.60;;;24.10;99.90;;;;;;5011860;28;20073;-72
2022/07/03 17:12:48;;;;;;;4.45;1.52;;;24.20;99.90;;;;;;5016381;28;20620;-74
2022/07/03 17:15:15;;;;;;;2.67;1.33;;;24.40;99.90;;;;;;5014375;28;20145;-73
2022/07/03 17:18:00;;;;;;;3.63;1.70;;;24.30;99.90;;;;;;5012001;28;20091;-76
2022/07/03 17:20:35;;;;;;;5.45;1.50;;;23.90;99.90;;;;;;5008367;28;20054;-72
2022/07/03 17:23:19;;;;;;;6.15;1.88;;;23.40;99.90;;;;;;5012917;28;20506;-70
2022/07/03 17:25:55;;;;;;;3.08;1.55;;;22.80;99.90;;;;;;5015375;28;20037;-80
2022/07/03 17:28:22;;;;;;;3.83;1.35;;;22.60;99.90;;;;;;5023998;28;20120;-82
2022/07/03 17:31:04;;;;;;;2.45;1.10;;;22.30;99.90;;;;;;5008461;28;20045;-78
2022/07/03 17:33:32;;;;;;;2.85;1.38;;;22.00;99.90;;;;;;5015102;28;20058;-73
2022/07/03 17:36:06;;;;;;;3.58;1.35;;;21.70;99.90;;;;;;5010041;28;20041;-69
2022/07/03 17:38:34;;;;;;;4.45;1.45;;;21.50;99.90;;;;;;5019220;28;20049;-71
2022/07/03 17:41:01;;;;;;;3.13;1.50;;;21.30;99.90;;;;;;5018146;28;20045;-72
2022/07/03 17:43:28;;;;;;;4.20;1.25;;;21.10;99.90;;;;;;5014038;28;20052;-72
2022/07/03 17:45:56;;;;;;;4.85;1.38;;;21.00;99.90;;;;;;5012834;28;20042;-69
2022/07/03 17:48:24;;;;;;;5.55;1.17;;;20.80;99.90;;;;;;5015181;28;20125;-70
2022/07/03 17:50:50;;;;;;;6.63;1.52;;;20.70;99.90;;;;;;5009430;28;20115;-72
2022/07/03 17:53:17;;;;;;;4.78;1.75;;;20.60;99.90;;;;;;5018874;28;20057;-71
2022/07/03 17:55:45;;;;;;;4.95;1.20;;;20.60;99.90;;;;;;5013004;28;20046;-68
2022/07/03 17:58:15;;;;;;;4.22;1.38;;;20.60;99.90;;;;;;5008264;28;20432;-76
2022/07/03 18:00:42;;;;;;;6.22;1.73;;;20.60;99.90;;;;;;5005300;28;20057;-76
2022/07/03 18:03:08;;;;;;;3.25;1.10;;;20.60;99.90;;;;;;5006672;28;20038;-75
2022/07/03 18:05:34;;;;;;;3.22;1.20;;;20.70;99.90;;;;;;5014012;28;20094;-72
2022/07/03 18:08:11;;;;;;;3.50;1.10;;;20.70;99.90;;;;;;5018786;28;20136;-72
2022/07/03 18:11:02;;;;;;;3.63;1.20;;;20.70;99.90;;;;;;5010651;28;20140;-72
2022/07/03 18:13:28;;;;;;;4.25;1.45;;;20.60;99.90;;;;;;5016722;28;20457;-72
2022/07/03 18:15:58;;;;;;;3.00;1.10;;;20.60;99.90;;;;;;5013889;28;20174;-74
2022/07/03 18:18:41;;;;;;;2.72;0.98;;;20.50;99.90;;;;;;5010546;28;20611;-70
2022/07/03 18:21:09;;;;;;;5.25;1.48;;;20.50;99.90;;;;;;5006296;28;20038;-72
2022/07/03 18:23:36;;;;;;;2.92;1.20;;;20.40;99.90;;;;;;5010079;28;20050;-71
2022/07/03 18:26:04;;;;;;;3.45;1.05;;;20.30;99.90;;;;;;5012194;28;20045;-72
2022/07/03 18:28:30;;;;;;;4.82;1.33;;;20.20;99.90;;;;;;5004652;28;20073;-72
2022/07/03 18:30:57;;;;;;;3.35;1.20;;;20.10;99.90;;;;;;5013233;28;20045;-71
2022/07/03 18:33:23;;;;;;;3.53;1.20;;;20.10;99.90;;;;;;5005633;28;20589;-68
2022/07/03 18:35:51;;;;;;;5.00;1.20;;;20.00;99.90;;;;;;5009842;28;20508;-73
2022/07/03 18:38:18;;;;;;;5.28;1.33;;;19.90;99.90;;;;;;5009022;28;20049;-68
2022/07/03 18:40:44;;;;;;;4.85;1.33;;;19.90;99.90;;;;;;5008533;28;20171;-72
2022/07/03 18:43:20;;;;;;;4.38;1.35;;;19.80;99.90;;;;;;5007691;28;20057;-72
2022/07/03 18:45:47;;;;;;;3.85;1.30;;;19.70;99.90;;;;;;5006007;28;20037;-72
2022/07/03 18:48:13;;;;;;;3.55;1.00;;;19.70;99.90;;;;;;5007392;28;20383;-71
2022/07/03 18:50:47;;;;;;;5.28;1.30;;;19.60;99.90;;;;;;5005581;28;20172;-71
2022/07/03 18:53:18;;;;;;;3.65;1.33;;;19.60;99.90;;;;;;5011552;28;20041;-71
2022/07/03 18:55:50;;;;;;;3.67;1.17;;;19.50;99.90;;;;;;5012182;28;20105;-72
2022/07/03 18:58:41;;;;;;;5.63;1.38;;;19.50;99.90;;;;;;5009933;28;20041;-72
2022/07/03 19:01:09;;;;;;;3.45;1.00;;;19.50;99.90;;;;;;5010207;28;20037;-73
2022/07/03 19:04:01;;;;;;;4.15;1.10;;;19.40;99.90;;;;;;5011045;28;20052;-71
2022/07/03 19:06:29;;;;;;;3.17;1.20;;;19.30;99.90;;;;;;5009591;28;20059;-71
2022/07/03 19:08:59;;;;;;;2.88;1.20;;;19.30;99.90;;;;;;5007611;28;21137;-71
2022/07/03 19:11:38;;;;;;;3.22;1.38;;;19.20;99.90;;;;;;5013972;28;20042;-72
2022/07/03 19:14:06;;;;;;;4.95;1.30;;;19.20;99.90;;;;;;5011412;28;20552;-71
2022/07/03 19:16:46;;;;;;;4.22;1.52;;;19.20;99.90;;;;;;5009966;28;20387;-72
2022/07/03 19:19:13;;;;;;;4.22;1.20;;;19.10;99.90;;;;;;5009802;28;20516;-72
2022/07/03 19:21:40;;;;;;;3.63;1.48;;;19.00;99.90;;;;;;5013071;28;20034;-72
2022/07/03 19:24:06;;;;;;;4.15;1.35;;;18.90;99.90;;;;;;5008543;28;20045;-71
2022/07/03 19:26:33;;;;;;;4.90;1.73;;;18.90;99.90;;;;;;5015494;28;20041;-71
2022/07/03 19:28:58;;;;;;;5.10;1.75;;;18.80;99.90;;;;;;5011607;28;20037;-71
2022/07/03 19:31:24;;;;;;;4.07;1.48;;;18.80;99.90;;;;;;5009828;28;20464;-71
2022/07/03 19:33:50;;;;;;;5.97;1.85;;;18.70;99.90;;;;;;5014719;28;20100;-71
2022/07/03 19:36:16;;;;;;;4.75;1.55;;;18.70;99.90;;;;;;5016666;28;20048;-72
2022/07/03 19:38:42;;;;;;;5.97;1.50;;;18.60;99.90;;;;;;5009499;28;20945;-72
2022/07/03 19:41:08;;;;;;;6.07;1.42;;;18.50;99.90;;;;;;5015872;28;20040;-71
2022/07/03 19:43:34;;;;;;;4.38;1.58;;;18.40;99.90;;;;;;5013918;28;20042;-72
2022/07/03 19:45:59;;;;;;;4.15;1.60;;;18.30;99.90;;;;;;5010605;28;20065;-73
2022/07/03 19:48:25;;;;;;;5.35;1.98;;;18.30;99.90;;;;;;5012018;28;20050;-73
2022/07/03 19:50:51;;;;;;;3.30;1.40;;;18.20;99.90;;;;;;5007053;28;20050;-73
2022/07/03 19:53:17;;;;;;;5.13;1.90;;;18.10;99.90;;;;;;5013594;28;20393;-72
2022/07/03 19:55:43;;;;;;;4.65;2.00;;;18.10;99.90;;;;;;5010386;28;20124;-72
2022/07/03 19:58:09;;;;;;;5.53;1.80;;;18.00;99.90;;;;;;5008994;28;20120;-72
2022/07/03 20:00:35;;;;;;;4.35;1.95;;;18.00;99.90;;;;;;5010544;28;20697;-72
2022/07/03 20:03:00;;;;;;;5.10;2.05;;;17.90;99.90;;;;;;5010145;28;20462;-72
2022/07/03 20:05:29;;;;;;;3.35;1.35;;;17.90;99.90;;;;;;5011680;28;20464;-72
2022/07/03 20:07:56;;;;;;;6.28;1.83;;;17.80;99.90;;;;;;5015649;28;20057;-72
2022/07/03 20:10:23;;;;;;;3.75;1.33;;;17.80;99.90;;;;;;5006955;28;20059;-71
2022/07/03 20:12:49;;;;;;;3.60;1.70;;;17.70;99.90;;;;;;5012480;28;20061;-71
2022/07/03 20:15:14;;;;;;;10.43;2.42;;;17.60;99.90;;;;;;5007445;28;20049;-72
2022/07/03 20:17:41;;;;;;;5.35;1.50;;;17.60;99.90;;;;;;5014210;28;20111;-72
2022/07/03 20:20:08;;;;;;;6.32;1.42;;;17.60;99.90;;;;;;5013282;28;20042;-71
2022/07/03 20:22:33;;;;;;;4.43;1.23;;;17.50;99.90;;;;;;5015826;28;20125;-74
2022/07/03 20:24:59;;;;;;;5.78;1.10;;;17.50;99.90;;;;;;5011000;28;20189;-71
2022/07/03 20:27:25;;;;;;;5.32;1.50;;;17.40;99.90;;;;;;5018541;28;20042;-69